Time;durP1;ratioP1;P1;durP2;ratioP2;P2;SDS_P1;SDS_P2;PMS_P1;PMS_P2;Temp;Humidity;BMP_temperature;BMP_pressure;BME280_temperature;BME280_humidity;BME280_pressure;Samples;Min_cycle;Max_cycle;Signal;HPM_P1;HPM_P2
2021/09/10 00:01:24;;;;;;;8.58;5.78;;;;;;;10.01;76.55;98077.24;1694464;85;21468;-74
2021/09/10 00:03:50;;;;;;;11.45;6.85;;;;;;;9.98;76.42;98079.11;1694490;85;20994;-75
2021/09/10 00:06:16;;;;;;;10.05;6.28;;;;;;;9.93;77.00;98079.69;1694407;85;21022;-75
2021/09/10 00:08:43;;;;;;;10.40;6.95;;;;;;;9.88;76.50;98078.45;1694654;85;21436;-75
2021/09/10 00:11:09;;;;;;;13.78;6.47;;;;;;;9.83;76.29;98071.97;1694590;85;21003;-75
2021/09/10 00:13:36;;;;;;;12.07;6.33;;;;;;;9.76;76.23;98067.28;1694485;85;21039;-75
2021/09/10 00:16:03;;;;;;;9.63;6.08;;;;;;;9.73;77.02;98079.73;1694562;85;21026;-75
2021/09/10 00:18:29;;;;;;;10.43;6.62;;;;;;;9.74;76.73;98074.41;1694409;85;21492;-75
2021/09/10 00:20:56;;;;;;;10.30;6.00;;;;;;;9.68;76.80;98077.18;1689834;85;20991;-75
2021/09/10 00:23:22;;;;;;;10.68;6.37;;;;;;;9.64;76.62;98068.45;1665141;86;21042;-75
2021/09/10 00:25:49;;;;;;;11.53;7.20;;;;;;;9.62;77.23;98073.37;1673283;85;21021;-76
2021/09/10 00:28:15;;;;;;;16.80;7.83;;;;;;;9.58;77.80;98072.58;1694350;85;21011;-76
2021/09/10 00:30:42;;;;;;;10.75;7.40;;;;;;;9.55;76.85;98068.67;1693900;84;21032;-76
2021/09/10 00:33:08;;;;;;;11.65;6.87;;;;;;;9.50;77.19;98079.83;1694270;85;21028;-76
2021/09/10 00:35:35;;;;;;;13.55;7.12;;;;;;;9.45;77.23;98076.42;1694468;85;21058;-76
2021/09/10 00:38:02;;;;;;;12.40;6.95;;;;;;;9.40;78.00;98072.58;1694520;85;21032;-76
2021/09/10 00:40:28;;;;;;;10.23;6.58;;;;;;;9.40;77.78;98079.63;1694306;85;21420;-76
2021/09/10 00:42:55;;;;;;;10.28;7.05;;;;;;;9.34;77.53;98076.70;1694550;85;21030;-76
2021/09/10 00:45:21;;;;;;;11.90;7.35;;;;;;;9.28;77.58;98076.81;1694471;85;20980;-76
2021/09/10 00:47:49;;;;;;;9.88;6.78;;;;;;;9.26;77.95;98076.84;1693144;85;20999;-76
2021/09/10 00:50:15;;;;;;;10.70;6.90;;;;;;;9.27;78.44;98083.02;1665099;86;21042;-76
2021/09/10 00:52:42;;;;;;;12.25;6.95;;;;;;;9.26;78.42;98080.81;1665248;86;20987;-76
2021/09/10 00:55:09;;;;;;;11.15;6.60;;;;;;;9.30;78.99;98082.48;1687407;85;21413;-75
2021/09/10 00:57:36;;;;;;;11.88;7.15;;;;;;;9.33;78.11;98075.81;1694623;85;20964;-76
2021/09/10 01:00:06;;;;;;;12.23;6.80;;;;;;;9.32;78.03;98073.20;1694457;85;21437;-76
2021/09/10 01:02:33;;;;;;;10.15;6.33;;;;;;;9.30;78.22;98072.37;1692962;83;22257;-76
2021/09/10 01:05:01;;;;;;;10.53;6.80;;;;;;;9.31;78.06;98073.67;1691155;85;20984;-76
2021/09/10 01:07:27;;;;;;;9.33;6.30;;;;;;;9.34;78.11;98076.22;1694276;85;21004;-75
2021/09/10 01:09:55;;;;;;;11.50;6.35;;;;;;;9.32;78.53;98076.73;1694572;85;21044;-76
2021/09/10 01:12:22;;;;;;;11.57;6.70;;;;;;;9.29;79.17;98075.91;1693243;84;20965;-76
2021/09/10 01:14:49;;;;;;;8.33;6.15;;;;;;;9.30;79.16;98072.37;1694386;84;20989;-75
2021/09/10 01:17:16;;;;;;;11.55;6.25;;;;;;;9.32;80.69;98069.23;1694418;85;21473;-75
2021/09/10 01:19:42;;;;;;;7.42;5.85;;;;;;;9.37;79.87;98068.67;1682125;84;20979;-75
2021/09/10 01:22:09;;;;;;;10.50;6.08;;;;;;;9.38;81.31;98066.00;1683018;85;21010;-75
2021/09/10 01:24:59;;;;;;;8.85;5.40;;;;;;;9.48;81.48;98060.02;1683541;84;21024;-75
2021/09/10 01:27:26;;;;;;;9.20;5.72;;;;;;;9.53;80.52;98063.89;1681530;85;21037;-75
2021/09/10 01:29:52;;;;;;;9.95;5.40;;;;;;;9.55;80.81;98070.48;1681129;85;20986;-75
2021/09/10 01:32:19;;;;;;;12.33;6.47;;;;;;;9.63;80.56;98067.16;1681305;85;20986;-75
2021/09/10 01:34:45;;;;;;;12.37;6.50;;;;;;;9.66;80.11;98065.78;1681425;85;21022;-75
2021/09/10 01:37:13;;;;;;;9.30;5.85;;;;;;;9.67;79.86;98067.98;1666846;85;21415;-76
2021/09/10 01:39:40;;;;;;;15.38;5.92;;;;;;;9.67;79.83;98067.52;1674738;85;20951;-77
2021/09/10 01:42:06;;;;;;;11.48;6.08;;;;;;;9.65;80.35;98069.34;1681424;85;21003;-76
2021/09/10 01:44:33;;;;;;;11.75;5.42;;;;;;;9.66;79.32;98073.72;1681383;85;21507;-76
2021/09/10 01:46:59;;;;;;;13.40;6.33;;;;;;;9.67;79.02;98061.37;1681550;85;20987;-75
2021/09/10 01:49:26;;;;;;;9.95;6.10;;;;;;;9.66;78.71;98063.13;1681460;85;21011;-75
2021/09/10 01:51:53;;;;;;;8.33;5.78;;;;;;;9.62;78.92;98062.78;1681224;85;21023;-75
2021/09/10 01:54:19;;;;;;;10.00;6.37;;;;;;;9.59;78.82;98060.23;1681610;85;21068;-75
2021/09/10 01:56:46;;;;;;;10.08;5.90;;;;;;;9.54;78.05;98061.66;1681504;85;21017;-75
2021/09/10 01:59:12;;;;;;;9.00;5.53;;;;;;;9.45;78.52;98063.20;1681470;85;21377;-75
2021/09/10 02:01:38;;;;;;;11.83;5.67;;;;;;;9.41;78.28;98061.52;1681582;85;20995;-75
2021/09/10 02:04:05;;;;;;;10.45;6.10;;;;;;;9.38;77.90;98071.73;1677837;84;21439;-76
2021/09/10 02:06:31;;;;;;;8.73;5.80;;;;;;;9.31;78.46;98074.11;1667060;85;21025;-75
2021/09/10 02:08:58;;;;;;;11.08;6.62;;;;;;;9.25;78.62;98068.50;1673837;85;21502;-76
2021/09/10 02:11:24;;;;;;;10.28;6.75;;;;;;;9.19;79.36;98081.44;1681328;85;21045;-75
2021/09/10 02:13:51;;;;;;;13.28;6.78;;;;;;;9.10;79.50;98076.34;1670008;85;20970;-75
2021/09/10 02:16:17;;;;;;;11.57;6.75;;;;;;;9.07;79.28;98080.37;1670123;85;21025;-76
2021/09/10 02:18:44;;;;;;;9.68;6.72;;;;;;;9.04;78.88;98078.66;1668722;85;21116;-76
2021/09/10 02:21:10;;;;;;;10.50;6.03;;;;;;;9.03;79.11;98077.37;1681380;84;21003;-76
2021/09/10 02:23:37;;;;;;;11.15;6.28;;;;;;;9.02;78.99;98077.84;1681349;85;21088;-76
2021/09/10 02:26:04;;;;;;;12.75;6.67;;;;;;;9.02;79.54;98079.60;1690291;85;21027;-76
2021/09/10 02:28:31;;;;;;;11.25;6.80;;;;;;;8.99;78.95;98077.90;1694405;85;21012;-76
2021/09/10 02:30:57;;;;;;;12.07;6.72;;;;;;;8.96;78.61;98079.27;1694567;83;21071;-75
2021/09/10 02:33:24;;;;;;;10.05;6.10;;;;;;;8.94;78.87;98080.66;1694393;85;21482;-75
2021/09/10 02:35:50;;;;;;;16.75;7.08;;;;;;;8.90;78.61;98077.66;1694664;85;20985;-75
2021/09/10 02:38:17;;;;;;;8.68;6.17;;;;;;;8.87;78.73;98078.15;1694594;84;21001;-75
2021/09/10 02:40:43;;;;;;;11.80;6.60;;;;;;;8.85;80.58;98074.24;1694407;85;21018;-76
2021/09/10 02:43:10;;;;;;;11.70;6.05;;;;;;;8.85;79.05;98075.09;1694491;85;21035;-76
2021/09/10 02:45:36;;;;;;;11.43;6.53;;;;;;;8.82;78.87;98075.17;1694542;85;20994;-77
2021/09/10 02:48:03;;;;;;;12.05;6.67;;;;;;;8.79;78.94;98073.03;1694576;85;21042;-77
2021/09/10 02:50:30;;;;;;;9.60;6.10;;;;;;;8.74;79.29;98077.09;1694617;85;21006;-80
2021/09/10 02:52:57;;;;;;;12.45;6.30;;;;;;;8.73;78.93;98075.80;1694630;85;21027;-80
2021/09/10 02:55:25;;;;;;;12.82;5.65;;;;;;;8.69;78.97;98072.37;1694597;85;20991;-80
2021/09/10 02:57:52;;;;;;;9.95;6.03;;;;;;;8.65;78.93;98077.29;1694414;85;21080;-80
2021/09/10 03:00:20;;;;;;;10.95;5.95;;;;;;;8.61;79.34;98083.53;1694444;85;20982;-80
2021/09/10 03:02:47;;;;;;;11.65;5.62;;;;;;;8.57;80.20;98077.01;1693415;83;21427;-81
2021/09/10 03:05:14;;;;;;;10.32;6.05;;;;;;;8.56;79.13;98082.31;1689452;85;21024;-81
2021/09/10 03:07:40;;;;;;;10.90;5.65;;;;;;;8.58;79.46;98080.50;1673302;85;21017;-81
2021/09/10 03:10:09;;;;;;;9.45;5.35;;;;;;;8.63;79.45;98080.42;1694799;85;21457;-81
2021/09/10 03:12:37;;;;;;;14.53;7.10;;;;;;;8.69;79.74;98084.25;1694552;85;21511;-80
2021/09/10 03:15:08;;;;;;;11.60;6.28;;;;;;;8.70;80.17;98082.91;1694513;85;21145;-80
2021/09/10 03:17:35;;;;;;;7.17;5.03;;;;;;;8.73;80.25;98080.66;1694581;85;21029;-81
2021/09/10 03:20:04;;;;;;;8.95;4.78;;;;;;;8.80;80.52;98086.69;1693791;84;21475;-80
2021/09/10 03:22:31;;;;;;;8.60;5.22;;;;;;;8.83;80.69;98082.20;1694337;85;21006;-80
2021/09/10 03:24:57;;;;;;;9.10;4.92;;;;;;;8.81;80.62;98080.02;1694656;85;20995;-80
2021/09/10 03:27:24;;;;;;;9.35;5.10;;;;;;;8.81;80.72;98083.13;1694495;85;21431;-80
2021/09/10 03:29:51;;;;;;;7.87;5.40;;;;;;;8.81;81.38;98080.48;1694613;85;20995;-80
2021/09/10 03:32:18;;;;;;;8.38;4.85;;;;;;;8.83;81.95;98076.91;1694420;85;21093;-80
2021/09/10 03:34:45;;;;;;;7.97;4.72;;;;;;;8.88;81.55;98086.52;1694503;85;21006;-80
2021/09/10 03:37:13;;;;;;;9.88;5.37;;;;;;;8.89;81.58;98081.65;1694582;85;21431;-81
2021/09/10 03:39:40;;;;;;;7.47;5.50;;;;;;;8.89;81.27;98083.81;1694523;85;21018;-80
2021/09/10 03:42:07;;;;;;;8.98;5.10;;;;;;;8.90;81.02;98087.34;1694419;85;21618;-81
2021/09/10 03:44:34;;;;;;;7.60;5.28;;;;;;;8.88;80.11;98087.37;1694517;85;21017;-81
2021/09/10 03:47:04;;;;;;;8.43;4.90;;;;;;;8.84;80.02;98092.30;1694449;85;20986;-80
2021/09/10 03:49:28;;;;;;;11.50;6.00;;;;;;;8.76;80.06;98096.42;1688316;85;21026;-80
2021/09/10 03:51:55;;;;;;;11.73;6.33;;;;;;;8.73;79.71;98095.19;1665173;86;21011;-80
2021/09/10 03:54:21;;;;;;;18.37;6.00;;;;;;;8.66;79.78;98089.59;1665222;86;21050;-81
2021/09/10 03:56:47;;;;;;;10.45;6.10;;;;;;;8.61;79.73;98090.13;1680199;85;21341;-81
2021/09/10 03:59:14;;;;;;;8.65;5.62;;;;;;;8.53;79.76;98091.17;1694457;83;20983;-80
2021/09/10 04:01:41;;;;;;;15.58;6.58;;;;;;;8.45;80.80;98090.41;1694247;85;20988;-81
2021/09/10 04:04:09;;;;;;;10.08;6.37;;;;;;;8.40;80.43;98094.48;1663264;86;21472;-81
2021/09/10 04:06:36;;;;;;;13.48;5.95;;;;;;;8.37;80.57;98091.88;1663298;86;21119;-82
2021/09/10 04:09:03;;;;;;;10.08;5.80;;;;;;;8.35;80.98;98095.45;1669471;84;21013;-81
2021/09/10 04:11:29;;;;;;;10.40;5.85;;;;;;;8.31;80.34;98095.97;1663222;86;21041;-81
2021/09/10 04:13:58;;;;;;;10.55;6.00;;;;;;;8.29;80.25;98101.27;1676230;85;21005;-81
2021/09/10 04:16:25;;;;;;;9.43;5.72;;;;;;;8.27;80.21;98096.45;1691585;85;21080;-81
2021/09/10 04:18:51;;;;;;;9.15;5.83;;;;;;;8.26;80.49;98105.28;1689228;85;21570;-81
2021/09/10 04:21:17;;;;;;;10.58;6.47;;;;;;;8.28;80.32;98101.30;1690456;85;21001;-82
2021/09/10 04:23:44;;;;;;;10.65;5.50;;;;;;;8.27;80.44;98100.41;1689336;85;21137;-81
2021/09/10 04:26:11;;;;;;;8.55;5.37;;;;;;;8.28;80.71;98100.86;1690926;85;20953;-82
2021/09/10 04:28:38;;;;;;;10.65;5.75;;;;;;;8.28;80.74;98099.97;1694392;85;21489;-81
2021/09/10 04:31:04;;;;;;;10.82;6.83;;;;;;;8.31;81.24;98105.20;1694473;85;20995;-81
2021/09/10 04:33:31;;;;;;;9.93;6.40;;;;;;;8.30;81.10;98095.09;1694538;85;20980;-81
2021/09/10 04:35:58;;;;;;;8.58;5.72;;;;;;;8.34;81.03;98099.84;1694511;85;21548;-81
2021/09/10 04:38:24;;;;;;;8.93;5.37;;;;;;;8.37;80.81;98101.13;1694603;85;21036;-81
2021/09/10 04:40:50;;;;;;;12.65;5.70;;;;;;;8.41;80.89;98097.53;1693864;84;21005;-81
2021/09/10 04:43:17;;;;;;;13.55;6.08;;;;;;;8.47;80.76;98097.84;1689169;85;21089;-81
2021/09/10 04:45:43;;;;;;;8.55;5.83;;;;;;;8.51;80.83;98098.20;1689512;83;21012;-81
2021/09/10 04:48:10;;;;;;;8.33;5.97;;;;;;;8.56;80.79;98099.48;1693315;83;21451;-81
2021/09/10 04:50:36;;;;;;;11.80;6.00;;;;;;;8.57;80.69;98102.10;1693114;83;20990;-81
2021/09/10 04:53:03;;;;;;;9.08;6.08;;;;;;;8.65;81.09;98103.70;1694481;85;21481;-81
2021/09/10 04:55:29;;;;;;;9.00;6.25;;;;;;;8.70;80.77;98104.48;1694368;85;21053;-79
2021/09/10 04:57:56;;;;;;;11.63;6.17;;;;;;;8.78;80.37;98113.58;1701579;83;21060;-80
2021/09/10 05:00:22;;;;;;;9.63;6.28;;;;;;;8.81;80.64;98106.45;1712791;83;21422;-80
2021/09/10 05:02:50;;;;;;;10.43;5.92;;;;;;;8.85;80.27;98104.16;1676792;85;21056;-80
2021/09/10 05:05:17;;;;;;;11.00;6.53;;;;;;;8.88;80.23;98111.63;1676913;85;21028;-79
2021/09/10 05:07:43;;;;;;;14.43;5.90;;;;;;;8.90;80.91;98113.34;1679019;85;21419;-80
2021/09/10 05:10:10;;;;;;;10.05;6.10;;;;;;;8.92;80.16;98114.59;1678799;85;20989;-80
2021/09/10 05:12:37;;;;;;;11.35;5.83;;;;;;;8.95;80.88;98113.22;1665040;86;21030;-80
2021/09/10 05:15:05;;;;;;;13.08;5.97;;;;;;;8.98;80.19;98106.09;1665086;85;21510;-80
2021/09/10 05:17:31;;;;;;;9.65;6.12;;;;;;;9.03;80.25;98106.45;1665252;86;21545;-80
2021/09/10 05:19:58;;;;;;;14.40;6.47;;;;;;;9.07;80.27;98107.69;1665104;86;21098;-81
2021/09/10 05:22:25;;;;;;;10.00;5.87;;;;;;;9.13;80.36;98107.14;1698403;83;21005;-80
2021/09/10 05:24:51;;;;;;;10.03;6.70;;;;;;;9.17;79.74;98111.45;1694464;83;21088;-80
2021/09/10 05:27:17;;;;;;;10.08;6.75;;;;;;;9.24;80.05;98107.76;1684837;83;21069;-80
2021/09/10 05:29:44;;;;;;;9.15;6.15;;;;;;;9.31;80.07;98107.17;1681356;84;21050;-81
2021/09/10 05:32:10;;;;;;;10.58;6.28;;;;;;;9.37;79.78;98101.30;1681495;85;21017;-81
2021/09/10 05:34:37;;;;;;;12.00;6.05;;;;;;;9.50;80.19;98103.64;1681338;85;21064;-81
2021/09/10 05:37:05;;;;;;;10.98;5.40;;;;;;;9.61;79.97;98111.33;1660976;85;21043;-81
2021/09/10 05:39:31;;;;;;;14.38;6.28;;;;;;;9.70;79.36;98102.29;1652607;86;21425;-81
2021/09/10 05:41:58;;;;;;;11.00;5.90;;;;;;;9.82;79.31;98099.80;1652484;87;21023;-81
2021/09/10 05:44:26;;;;;;;9.98;6.25;;;;;;;9.93;79.40;98103.07;1652359;87;21111;-81
2021/09/10 05:46:53;;;;;;;12.20;5.80;;;;;;;10.04;79.24;98102.33;1681502;84;21028;-81
2021/09/10 05:49:19;;;;;;;10.95;6.20;;;;;;;10.16;79.11;98103.80;1662700;84;21440;-82
2021/09/10 05:51:46;;;;;;;8.65;5.20;;;;;;;10.27;78.92;98101.31;1687193;84;21001;-81
2021/09/10 05:54:12;;;;;;;11.93;5.87;;;;;;;10.36;78.82;98106.37;1710082;83;21006;-82
2021/09/10 05:56:39;;;;;;;13.93;6.30;;;;;;;10.48;78.67;98104.31;1691020;84;21020;-82
2021/09/10 05:59:05;;;;;;;11.43;6.65;;;;;;;10.60;78.59;98105.32;1681535;85;21015;-80
2021/09/10 06:01:32;;;;;;;12.33;6.62;;;;;;;10.70;78.47;98103.27;1693178;84;21463;-80
2021/09/10 06:03:59;;;;;;;12.80;6.28;;;;;;;10.79;78.40;98107.42;1681815;84;21076;-81
2021/09/10 06:06:26;;;;;;;11.88;5.87;;;;;;;10.87;78.35;98113.38;1681530;84;21038;-81
2021/09/10 06:08:52;;;;;;;17.90;6.60;;;;;;;10.95;78.09;98110.06;1680972;85;20952;-81
2021/09/10 06:11:19;;;;;;;10.95;6.62;;;;;;;11.03;78.02;98104.97;1691310;84;21471;-80
2021/09/10 06:13:45;;;;;;;12.70;6.47;;;;;;;11.10;77.73;98106.55;1708683;84;20986;-80
2021/09/10 06:16:11;;;;;;;12.40;6.45;;;;;;;11.18;77.15;98104.52;1696511;84;21013;-80
2021/09/10 06:18:38;;;;;;;31.10;23.45;;;;;;;11.26;77.42;98104.30;1709945;84;21455;-80
2021/09/10 06:21:04;;;;;;;24.90;16.30;;;;;;;11.31;77.22;98107.69;1710024;84;21018;-80
2021/09/10 06:23:31;;;;;;;13.28;8.05;;;;;;;11.38;77.03;98096.88;1697416;84;21009;-80
2021/09/10 06:25:57;;;;;;;11.35;7.87;;;;;;;11.44;76.72;98095.34;1695350;84;21064;-80
2021/09/10 06:28:24;;;;;;;13.75;6.47;;;;;;;11.51;76.39;98101.33;1639449;86;20993;-80
2021/09/10 06:30:50;;;;;;;13.28;6.95;;;;;;;11.57;76.26;98095.81;1652518;86;21016;-78
2021/09/10 06:33:17;;;;;;;12.68;7.17;;;;;;;11.64;76.06;98089.41;1663867;86;21040;-77
2021/09/10 06:35:43;;;;;;;12.35;7.65;;;;;;;11.71;76.01;98096.24;1662398;85;21019;-78
2021/09/10 06:38:10;;;;;;;11.00;6.65;;;;;;;11.80;75.99;98096.88;1664747;85;21506;-78
2021/09/10 06:40:37;;;;;;;11.20;6.62;;;;;;;11.87;76.05;98092.62;1655966;85;20981;-78
2021/09/10 06:43:06;;;;;;;12.20;7.17;;;;;;;11.94;75.66;98089.76;1677379;85;21021;-78
2021/09/10 06:45:32;;;;;;;10.85;6.70;;;;;;;12.01;75.72;98093.48;1676816;85;21037;-78
2021/09/10 06:47:59;;;;;;;12.55;6.42;;;;;;;12.09;75.29;98094.58;1653664;85;21024;-78
2021/09/10 06:50:27;;;;;;;14.70;6.47;;;;;;;12.20;75.08;98096.88;1622073;88;21510;-77
2021/09/10 06:52:54;;;;;;;9.28;6.37;;;;;;;12.32;74.79;98093.38;1622137;88;21084;-77
2021/09/10 06:55:20;;;;;;;9.73;6.72;;;;;;;12.41;74.71;98100.58;1633085;85;21423;-78
2021/09/10 06:57:47;;;;;;;13.48;6.75;;;;;;;12.50;74.59;98092.73;1676823;85;20973;-78
2021/09/10 07:00:15;;;;;;;10.63;6.28;;;;;;;12.59;74.58;98089.34;1674562;85;21063;-78
2021/09/10 07:02:42;;;;;;;11.45;6.28;;;;;;;12.70;74.36;98087.63;1661166;85;21346;-77
2021/09/10 07:05:09;;;;;;;11.63;6.42;;;;;;;12.78;74.10;98094.84;1653519;86;21050;-77
2021/09/10 07:07:35;;;;;;;12.40;6.30;;;;;;;12.89;74.08;98094.00;1649465;86;21628;-77
2021/09/10 07:10:03;;;;;;;12.85;6.45;;;;;;;12.99;73.97;98087.85;1658713;85;20981;-78
2021/09/10 07:12:30;;;;;;;12.82;6.00;;;;;;;13.11;73.79;98095.83;1665819;85;20988;-79
2021/09/10 07:14:57;;;;;;;11.28;6.17;;;;;;;13.22;73.52;98091.44;1667636;85;21008;-78
2021/09/10 07:17:24;;;;;;;10.38;6.70;;;;;;;13.33;73.41;98091.88;1664632;85;21016;-79
2021/09/10 07:19:50;;;;;;;11.80;6.90;;;;;;;13.47;73.11;98090.50;1663559;85;21086;-78
2021/09/10 07:22:18;;;;;;;11.88;6.75;;;;;;;13.56;72.79;98084.81;1671884;85;20961;-77
2021/09/10 07:24:44;;;;;;;9.93;6.55;;;;;;;13.68;72.30;98086.56;1660261;85;21426;-82
2021/09/10 07:27:11;;;;;;;11.08;6.85;;;;;;;13.82;72.39;98085.98;1676599;84;21081;-81
2021/09/10 07:29:38;;;;;;;9.83;6.22;;;;;;;13.95;72.01;98082.37;1654065;87;21017;-81
2021/09/10 07:32:05;;;;;;;11.80;6.25;;;;;;;14.07;71.42;98083.16;1653760;87;21005;-81
2021/09/10 07:34:32;;;;;;;10.45;6.87;;;;;;;14.22;70.90;98086.11;1673226;85;20983;-81
2021/09/10 07:36:59;;;;;;;10.03;5.90;;;;;;;14.33;70.92;98077.17;1681321;85;21094;-81
2021/09/10 07:39:26;;;;;;;9.35;6.22;;;;;;;14.44;70.75;98081.16;1681327;85;21049;-82
2021/09/10 07:41:54;;;;;;;11.18;6.70;;;;;;;14.57;70.52;98087.69;1681176;85;21464;-81
2021/09/10 07:44:20;;;;;;;10.25;6.60;;;;;;;14.67;69.70;98084.61;1681301;85;21100;-81
2021/09/10 07:46:52;;;;;;;8.28;5.85;;;;;;;14.78;69.45;98079.69;1681208;85;21107;-81
2021/09/10 07:49:17;;;;;;;10.95;5.45;;;;;;;14.87;69.40;98086.42;1681688;84;20998;-83
2021/09/10 07:51:44;;;;;;;9.63;5.58;;;;;;;14.99;69.48;98083.66;1698755;84;20986;-77
2021/09/10 07:54:11;;;;;;;8.55;5.42;;;;;;;15.10;68.08;98084.48;1686662;84;21008;-82
2021/09/10 07:56:38;;;;;;;12.88;5.85;;;;;;;15.27;67.66;98086.35;1684553;84;21048;-81
2021/09/10 07:59:05;;;;;;;9.60;5.37;;;;;;;15.36;68.14;98081.91;1702282;84;21085;-84
2021/09/10 08:01:33;;;;;;;11.03;5.33;;;;;;;15.48;67.09;98083.62;1709408;84;20974;-83
2021/09/10 08:04:01;;;;;;;8.20;5.47;;;;;;;15.57;67.61;98087.15;1678166;84;20987;-80
2021/09/10 08:06:29;;;;;;;12.07;6.05;;;;;;;15.68;67.13;98080.84;1667337;86;21105;-81
2021/09/10 08:08:56;;;;;;;16.35;6.60;;;;;;;15.78;66.89;98085.23;1675359;85;21035;-83
2021/09/10 08:11:22;;;;;;;21.05;11.53;;;;;;;15.87;65.65;98082.60;1661680;85;21366;-80
2021/09/10 08:13:49;;;;;;;16.50;9.30;;;;;;;15.95;66.28;98088.44;1681262;85;21012;-79
2021/09/10 08:16:15;;;;;;;12.80;6.47;;;;;;;16.05;65.36;98075.95;1680894;84;21451;-80
2021/09/10 08:18:42;;;;;;;11.40;7.22;;;;;;;16.16;64.77;98079.42;1671894;85;20985;-80
2021/09/10 08:21:09;;;;;;;14.58;7.92;;;;;;;16.25;65.63;98076.28;1680174;84;21020;-79
2021/09/10 08:23:35;;;;;;;11.83;6.33;;;;;;;16.34;62.87;98078.94;1680675;85;20933;-80
2021/09/10 08:26:02;;;;;;;7.65;5.55;;;;;;;16.48;64.38;98075.53;1639102;85;21067;-80
2021/09/10 08:28:29;;;;;;;13.18;6.35;;;;;;;16.59;63.95;98076.31;1667662;85;21000;-79
2021/09/10 08:30:55;;;;;;;7.83;6.12;;;;;;;16.70;63.98;98077.94;1672589;86;21000;-79
2021/09/10 08:33:24;;;;;;;11.33;6.50;;;;;;;16.81;63.92;98076.03;1671769;86;21054;-79
2021/09/10 08:35:50;;;;;;;9.65;6.45;;;;;;;16.90;62.72;98071.98;1659188;86;21494;-79
2021/09/10 08:38:17;;;;;;;10.05;6.20;;;;;;;17.01;62.79;98064.25;1637686;87;21060;-80
2021/09/10 08:40:47;;;;;;;13.25;6.22;;;;;;;17.15;62.07;98067.52;1637775;87;21045;-79
2021/09/10 08:43:14;;;;;;;13.68;6.92;;;;;;;17.28;62.75;98065.02;1636718;87;21089;-79
2021/09/10 08:45:41;;;;;;;68.65;41.40;;;;;;;17.38;62.33;98064.50;1636920;88;21510;-78
2021/09/10 08:48:10;;;;;;;14.53;7.28;;;;;;;17.46;62.41;98058.25;1637130;88;21061;-78
2021/09/10 08:50:37;;;;;;;14.58;5.90;;;;;;;17.58;60.82;98046.42;1630571;86;21018;-76
2021/09/10 08:53:04;;;;;;;14.93;6.53;;;;;;;17.76;60.63;98045.37;1634830;88;20997;-78
2021/09/10 08:55:31;;;;;;;15.15;6.15;;;;;;;17.90;60.67;98045.89;1623491;86;21048;-77
2021/09/10 08:57:57;;;;;;;15.13;6.00;;;;;;;18.03;61.06;98047.86;1640196;85;21029;-78
2021/09/10 09:00:31;;;;;;;10.32;5.60;;;;;;;18.12;59.01;98046.00;1637852;88;21102;-76
2021/09/10 09:03:11;;;;;;;14.85;6.22;;;;;;;18.22;60.08;98044.11;1637561;88;21071;-75
2021/09/10 09:05:40;;;;;;;8.95;5.67;;;;;;;18.28;59.57;98046.41;1637439;88;21035;-76
2021/09/10 09:08:12;;;;;;;12.98;5.85;;;;;;;18.38;58.54;98042.68;1635760;87;21058;-76
2021/09/10 09:11:07;;;;;;;12.98;6.15;;;;;;;18.48;59.46;98038.50;1634837;86;21057;-76
2021/09/10 09:13:41;;;;;;;10.03;5.50;;;;;;;18.58;57.24;98037.44;1622148;88;21577;-75
2021/09/10 09:16:19;;;;;;;12.53;6.28;;;;;;;18.71;58.96;98036.20;1629119;88;21120;-76
2021/09/10 09:18:54;;;;;;;14.40;6.62;;;;;;;18.81;58.67;98028.44;1623999;88;21482;-75
2021/09/10 09:21:26;;;;;;;11.53;5.50;;;;;;;18.91;57.66;98030.92;1611427;89;21059;-74
2021/09/10 09:24:15;;;;;;;11.30;6.03;;;;;;;19.05;56.00;98028.72;1611139;89;21093;-75
2021/09/10 09:26:44;;;;;;;15.70;6.35;;;;;;;19.16;57.67;98022.67;1667288;85;22275;-77
2021/09/10 09:29:14;;;;;;;12.75;7.28;;;;;;;19.29;57.25;98021.39;1662572;86;21465;-77
2021/09/10 09:31:54;;;;;;;11.65;6.47;;;;;;;19.38;57.75;98015.89;1652373;86;21517;-76
2021/09/10 09:34:47;;;;;;;14.73;6.30;;;;;;;19.47;57.16;98017.97;1596259;88;21052;-76
2021/09/10 09:37:19;;;;;;;9.35;5.55;;;;;;;19.56;57.31;98017.84;1618783;88;21489;-76
2021/09/10 09:40:00;;;;;;;15.60;6.97;;;;;;;19.67;55.79;98010.41;1629339;88;21513;-75
2021/09/10 09:42:36;;;;;;;27.13;17.77;;;;;;;19.79;54.20;98012.76;1629010;88;21081;-75
2021/09/10 09:45:16;;;;;;;12.55;8.25;;;;;;;19.94;55.11;98010.00;1636161;88;21052;-74
2021/09/10 09:47:44;;;;;;;8.35;6.37;;;;;;;20.04;54.85;98003.93;1635841;86;21048;-75
2021/09/10 09:50:18;;;;;;;13.15;6.45;;;;;;;20.14;54.70;98003.30;1636799;88;21012;-76
2021/09/10 09:52:51;;;;;;;11.33;6.28;;;;;;;20.27;54.64;98006.00;1641657;87;21032;-74
2021/09/10 09:55:19;;;;;;;11.80;6.90;;;;;;;20.36;54.50;97987.86;1640966;87;21045;-75
2021/09/10 09:57:45;;;;;;;10.98;6.20;;;;;;;20.48;54.08;97990.66;1635790;88;21059;-75
2021/09/10 10:00:13;;;;;;;9.23;6.30;;;;;;;20.57;53.53;97991.35;1646415;87;21020;-77
2021/09/10 10:02:40;;;;;;;11.57;6.72;;;;;;;20.69;53.78;97986.92;1637885;87;21036;-74
2021/09/10 10:05:09;;;;;;;14.43;6.87;;;;;;;20.81;53.38;97987.88;1637604;86;21011;-75
2021/09/10 10:08:04;;;;;;;10.28;6.67;;;;;;;20.88;51.49;97991.87;1637522;88;21497;-75
2021/09/10 10:10:52;;;;;;;10.32;6.65;;;;;;;21.00;53.01;97983.89;1637362;86;21048;-75
2021/09/10 10:13:33;;;;;;;16.20;7.92;;;;;;;21.14;53.05;97978.35;1610373;88;21040;-75
2021/09/10 10:16:00;;;;;;;11.03;7.10;;;;;;;21.26;52.66;97975.72;1610124;88;21024;-74
2021/09/10 10:18:43;;;;;;;10.75;6.22;;;;;;;21.38;51.99;97976.13;1603607;89;21064;-74
2021/09/10 10:21:12;;;;;;;19.27;6.87;;;;;;;21.49;52.11;97972.64;1603721;89;21028;-77
2021/09/10 10:23:49;;;;;;;12.33;6.25;;;;;;;21.61;50.65;97966.34;1640612;87;21524;-77
2021/09/10 10:26:32;;;;;;;9.03;6.62;;;;;;;21.73;50.97;97969.10;1607427;87;21030;-76
2021/09/10 10:29:07;;;;;;;12.25;5.92;;;;;;;21.89;50.86;97958.84;1601922;88;21116;-76
2021/09/10 10:32:04;;;;;;;12.20;5.78;;;;;;;22.00;48.80;97957.15;1617509;87;21080;-75
2021/09/10 10:34:35;;;;;;;12.88;6.45;;;;;;;22.14;48.88;97952.05;1675945;85;21432;-76
2021/09/10 10:37:05;;;;;;;8.25;5.62;;;;;;;22.46;49.24;97949.14;1669482;85;20976;-76
2021/09/10 10:39:31;;;;;;;9.03;6.05;;;;;;;23.47;48.50;97943.75;1677817;85;21698;-75
2021/09/10 10:42:02;;;;;;;11.68;6.20;;;;;;;24.94;47.68;97935.33;1681161;85;21447;-75
2021/09/10 10:44:41;;;;;;;10.82;6.10;;;;;;;26.23;42.84;97932.49;1680972;85;21495;-77
2021/09/10 10:47:17;;;;;;;10.13;5.80;;;;;;;27.36;39.46;97924.42;1666869;84;21473;-75
2021/09/10 10:49:50;;;;;;;8.43;5.55;;;;;;;28.41;38.84;97920.19;1695014;84;21076;-76
2021/09/10 10:52:41;;;;;;;10.18;5.37;;;;;;;29.52;38.54;97918.92;1679277;84;21036;-76
2021/09/10 10:55:22;;;;;;;8.95;5.65;;;;;;;30.35;36.61;97918.88;1673790;85;21023;-76
2021/09/10 10:57:55;;;;;;;8.55;5.50;;;;;;;31.14;34.36;97909.02;1681016;85;21002;-75
2021/09/10 11:00:36;;;;;;;9.80;6.42;;;;;;;31.82;31.58;97902.06;1681108;84;21030;-76
2021/09/10 11:03:23;;;;;;;6.60;5.40;;;;;;;32.43;31.88;97907.19;1680988;85;21013;-77
2021/09/10 11:05:55;;;;;;;7.80;5.08;;;;;;;33.06;29.38;97902.67;1680662;85;21104;-77
2021/09/10 11:08:42;;;;;;;10.73;5.53;;;;;;;33.57;29.32;97896.28;1681465;85;20970;-78
2021/09/10 11:11:11;;;;;;;8.83;5.30;;;;;;;33.96;27.53;97895.44;1680686;85;21057;-78
2021/09/10 11:13:41;;;;;;;6.92;5.08;;;;;;;33.99;26.50;97896.94;1681217;85;21068;-77
2021/09/10 11:16:10;;;;;;;6.40;4.65;;;;;;;34.42;27.32;97897.91;1693944;84;21049;-78
2021/09/10 11:18:39;;;;;;;10.10;5.17;;;;;;;34.63;26.50;97895.64;1687613;84;21526;-77
2021/09/10 11:21:08;;;;;;;7.47;4.90;;;;;;;35.25;26.40;97892.09;1679117;85;21075;-77
2021/09/10 11:23:37;;;;;;;7.37;5.22;;;;;;;35.63;24.45;97887.43;1681102;85;21461;-78
2021/09/10 11:26:07;;;;;;;8.93;5.17;;;;;;;35.96;24.77;97884.88;1680723;85;21076;-78
2021/09/10 11:28:37;;;;;;;7.05;5.17;;;;;;;35.92;23.19;97886.70;1680945;85;21043;-77
2021/09/10 11:31:04;;;;;;;11.73;5.15;;;;;;;36.13;23.74;97886.19;1680766;85;21063;-75
2021/09/10 11:33:51;;;;;;;9.00;5.42;;;;;;;36.20;22.28;97886.17;1681145;85;21027;-75
2021/09/10 11:36:25;;;;;;;8.08;5.10;;;;;;;36.11;22.98;97883.29;1680137;85;21531;-76
2021/09/10 11:39:06;;;;;;;8.95;5.28;;;;;;;36.20;22.34;97887.00;1681453;84;21019;-76